sensor_id;sensor_type;location;lat;lon;timestamp;P1;durP1;ratioP1;P2;durP2;ratioP2
41556;SDS011;27720;51.992;5.890;2023-03-01T00:02:20;2.35;;;1.33;;
41556;SDS011;27720;51.992;5.890;2023-03-01T00:04:46;3.83;;;1.50;;
41556;SDS011;27720;51.992;5.890;2023-03-01T00:07:12;2.42;;;1.67;;
41556;SDS011;27720;51.992;5.890;2023-03-01T00:09:38;2.65;;;1.40;;
41556;SDS011;27720;51.992;5.890;2023-03-01T00:12:05;2.15;;;1.40;;
41556;SDS011;27720;51.992;5.890;2023-03-01T00:14:31;3.42;;;1.60;;
41556;SDS011;27720;51.992;5.890;2023-03-01T00:16:57;2.17;;;1.17;;
41556;SDS011;27720;51.992;5.890;2023-03-01T00:19:23;2.03;;;1.42;;
41556;SDS011;27720;51.992;5.890;2023-03-01T00:21:49;2.25;;;1.50;;
41556;SDS011;27720;51.992;5.890;2023-03-01T00:24:14;4.45;;;1.73;;
41556;SDS011;27720;51.992;5.890;2023-03-01T00:26:41;2.53;;;1.70;;
41556;SDS011;27720;51.992;5.890;2023-03-01T00:29:06;2.88;;;1.70;;
41556;SDS011;27720;51.992;5.890;2023-03-01T00:31:33;3.40;;;1.90;;
41556;SDS011;27720;51.992;5.890;2023-03-01T00:34:00;2.72;;;1.40;;
41556;SDS011;27720;51.992;5.890;2023-03-01T00:36:29;2.47;;;1.55;;
41556;SDS011;27720;51.992;5.890;2023-03-01T00:38:57;3.53;;;1.60;;
41556;SDS011;27720;51.992;5.890;2023-03-01T00:41:23;3.88;;;1.52;;
41556;SDS011;27720;51.992;5.890;2023-03-01T00:43:51;2.55;;;2.00;;
41556;SDS011;27720;51.992;5.890;2023-03-01T00:46:19;2.70;;;1.50;;
41556;SDS011;27720;51.992;5.890;2023-03-01T00:48:48;4.63;;;1.80;;
41556;SDS011;27720;51.992;5.890;2023-03-01T00:51:18;3.45;;;1.70;;
41556;SDS011;27720;51.992;5.890;2023-03-01T00:53:46;2.30;;;1.73;;
41556;SDS011;27720;51.992;5.890;2023-03-01T00:56:14;3.00;;;1.70;;
41556;SDS011;27720;51.992;5.890;2023-03-01T00:58:40;3.13;;;1.90;;
41556;SDS011;27720;51.992;5.890;2023-03-01T01:01:11;3.05;;;1.75;;
41556;SDS011;27720;51.992;5.890;2023-03-01T01:06:22;2.42;;;1.77;;
41556;SDS011;27720;51.992;5.890;2023-03-01T01:08:51;3.30;;;2.08;;
41556;SDS011;27720;51.992;5.890;2023-03-01T01:11:17;3.58;;;1.83;;
41556;SDS011;27720;51.992;5.890;2023-03-01T01:13:44;3.35;;;1.85;;
41556;SDS011;27720;51.992;5.890;2023-03-01T01:16:11;3.45;;;1.88;;
41556;SDS011;27720;51.992;5.890;2023-03-01T01:18:38;4.35;;;2.67;;
41556;SDS011;27720;51.992;5.890;2023-03-01T01:21:09;3.95;;;1.90;;
41556;SDS011;27720;51.992;5.890;2023-03-01T01:23:37;3.22;;;1.85;;
41556;SDS011;27720;51.992;5.890;2023-03-01T01:26:07;3.45;;;1.95;;
41556;SDS011;27720;51.992;5.890;2023-03-01T01:28:35;3.55;;;1.95;;
41556;SDS011;27720;51.992;5.890;2023-03-01T01:31:01;3.95;;;1.90;;
41556;SDS011;27720;51.992;5.890;2023-03-01T01:33:27;4.00;;;2.53;;
41556;SDS011;27720;51.992;5.890;2023-03-01T01:35:53;4.43;;;2.65;;
41556;SDS011;27720;51.992;5.890;2023-03-01T01:38:19;2.40;;;2.00;;
41556;SDS011;27720;51.992;5.890;2023-03-01T01:40:46;3.05;;;1.70;;
41556;SDS011;27720;51.992;5.890;2023-03-01T01:43:18;3.63;;;2.42;;
41556;SDS011;27720;51.992;5.890;2023-03-01T01:45:50;2.70;;;1.90;;
41556;SDS011;27720;51.992;5.890;2023-03-01T01:48:23;3.97;;;2.03;;
41556;SDS011;27720;51.992;5.890;2023-03-01T01:51:06;4.03;;;1.92;;
41556;SDS011;27720;51.992;5.890;2023-03-01T01:56:03;2.67;;;1.67;;
41556;SDS011;27720;51.992;5.890;2023-03-01T01:58:33;3.65;;;2.05;;
41556;SDS011;27720;51.992;5.890;2023-03-01T02:01:00;3.08;;;2.17;;
41556;SDS011;27720;51.992;5.890;2023-03-01T02:03:29;3.10;;;1.50;;
41556;SDS011;27720;51.992;5.890;2023-03-01T02:09:06;4.47;;;2.03;;
41556;SDS011;27720;51.992;5.890;2023-03-01T02:11:37;3.60;;;2.47;;
41556;SDS011;27720;51.992;5.890;2023-03-01T02:14:06;4.45;;;1.90;;
41556;SDS011;27720;51.992;5.890;2023-03-01T02:16:32;5.38;;;1.98;;
41556;SDS011;27720;51.992;5.890;2023-03-01T02:18:59;5.22;;;1.92;;
41556;SDS011;27720;51.992;5.890;2023-03-01T02:24:47;4.50;;;2.10;;
41556;SDS011;27720;51.992;5.890;2023-03-01T02:27:10;3.90;;;2.13;;
41556;SDS011;27720;51.992;5.890;2023-03-01T02:29:38;5.18;;;2.28;;
41556;SDS011;27720;51.992;5.890;2023-03-01T02:32:04;6.50;;;2.58;;
41556;SDS011;27720;51.992;5.890;2023-03-01T02:34:31;3.13;;;2.00;;
41556;SDS011;27720;51.992;5.890;2023-03-01T02:37:02;4.78;;;2.13;;
41556;SDS011;27720;51.992;5.890;2023-03-01T02:40:05;2.63;;;1.52;;
41556;SDS011;27720;51.992;5.890;2023-03-01T02:42:30;3.40;;;1.88;;
41556;SDS011;27720;51.992;5.890;2023-03-01T02:45:00;3.03;;;1.90;;
41556;SDS011;27720;51.992;5.890;2023-03-01T02:47:29;4.50;;;2.38;;
41556;SDS011;27720;51.992;5.890;2023-03-01T02:49:55;5.82;;;2.13;;
41556;SDS011;27720;51.992;5.890;2023-03-01T02:55:01;3.90;;;2.33;;
41556;SDS011;27720;51.992;5.890;2023-03-01T02:57:33;3.80;;;1.98;;
41556;SDS011;27720;51.992;5.890;2023-03-01T03:00:12;3.95;;;2.28;;
41556;SDS011;27720;51.992;5.890;2023-03-01T03:02:47;4.18;;;2.05;;
41556;SDS011;27720;51.992;5.890;2023-03-01T03:05:22;2.85;;;1.67;;
41556;SDS011;27720;51.992;5.890;2023-03-01T03:07:53;4.97;;;2.10;;
41556;SDS011;27720;51.992;5.890;2023-03-01T03:10:20;4.70;;;2.10;;
41556;SDS011;27720;51.992;5.890;2023-03-01T03:12:51;3.22;;;2.10;;
41556;SDS011;27720;51.992;5.890;2023-03-01T03:15:19;5.45;;;2.47;;
41556;SDS011;27720;51.992;5.890;2023-03-01T03:17:46;4.68;;;1.58;;
41556;SDS011;27720;51.992;5.890;2023-03-01T03:20:12;5.72;;;2.40;;
41556;SDS011;27720;51.992;5.890;2023-03-01T03:22:47;2.15;;;1.58;;
41556;SDS011;27720;51.992;5.890;2023-03-01T03:25:14;5.28;;;2.22;;
41556;SDS011;27720;51.992;5.890;2023-03-01T03:27:42;4.13;;;2.17;;
41556;SDS011;27720;51.992;5.890;2023-03-01T03:30:10;3.47;;;2.25;;
41556;SDS011;27720;51.992;5.890;2023-03-01T03:32:42;4.43;;;2.03;;
41556;SDS011;27720;51.992;5.890;2023-03-01T03:35:17;4.00;;;2.03;;
41556;SDS011;27720;51.992;5.890;2023-03-01T03:37:49;3.72;;;1.67;;
41556;SDS011;27720;51.992;5.890;2023-03-01T03:43:02;3.00;;;1.60;;
41556;SDS011;27720;51.992;5.890;2023-03-01T03:45:28;2.00;;;1.35;;
41556;SDS011;27720;51.992;5.890;2023-03-01T03:47:54;2.38;;;1.70;;
41556;SDS011;27720;51.992;5.890;2023-03-01T03:50:20;3.33;;;1.95;;
41556;SDS011;27720;51.992;5.890;2023-03-01T03:52:46;2.50;;;1.40;;
41556;SDS011;27720;51.992;5.890;2023-03-01T03:55:12;2.92;;;1.65;;
41556;SDS011;27720;51.992;5.890;2023-03-01T03:57:39;3.55;;;1.60;;
41556;SDS011;27720;51.992;5.890;2023-03-01T04:00:06;3.78;;;1.73;;
41556;SDS011;27720;51.992;5.890;2023-03-01T04:02:38;2.05;;;1.58;;
41556;SDS011;27720;51.992;5.890;2023-03-01T04:05:08;3.25;;;1.55;;
41556;SDS011;27720;51.992;5.890;2023-03-01T04:07:39;1.92;;;1.42;;
41556;SDS011;27720;51.992;5.890;2023-03-01T04:10:07;2.65;;;1.75;;
41556;SDS011;27720;51.992;5.890;2023-03-01T04:12:35;1.93;;;1.23;;
41556;SDS011;27720;51.992;5.890;2023-03-01T04:15:02;3.40;;;1.67;;
41556;SDS011;27720;51.992;5.890;2023-03-01T04:17:41;3.10;;;1.45;;
41556;SDS011;27720;51.992;5.890;2023-03-01T04:20:09;1.95;;;1.40;;
41556;SDS011;27720;51.992;5.890;2023-03-01T04:22:42;3.25;;;1.98;;
41556;SDS011;27720;51.992;5.890;2023-03-01T04:25:12;4.18;;;1.85;;
41556;SDS011;27720;51.992;5.890;2023-03-01T04:27:39;2.88;;;1.70;;
41556;SDS011;27720;51.992;5.890;2023-03-01T04:30:05;4.55;;;1.98;;
41556;SDS011;27720;51.992;5.890;2023-03-01T04:32:32;2.35;;;1.42;;
41556;SDS011;27720;51.992;5.890;2023-03-01T04:35:01;2.50;;;1.55;;
41556;SDS011;27720;51.992;5.890;2023-03-01T04:37:27;2.63;;;1.45;;
41556;SDS011;27720;51.992;5.890;2023-03-01T04:39:53;3.00;;;1.63;;
41556;SDS011;27720;51.992;5.890;2023-03-01T04:42:18;2.60;;;1.58;;
41556;SDS011;27720;51.992;5.890;2023-03-01T04:44:45;2.67;;;1.65;;
41556;SDS011;27720;51.992;5.890;2023-03-01T04:47:11;2.70;;;1.45;;
41556;SDS011;27720;51.992;5.890;2023-03-01T04:49:38;2.17;;;1.40;;
41556;SDS011;27720;51.992;5.890;2023-03-01T04:52:04;4.15;;;2.25;;
41556;SDS011;27720;51.992;5.890;2023-03-01T04:54:30;4.00;;;1.60;;
41556;SDS011;27720;51.992;5.890;2023-03-01T04:56:57;3.20;;;1.70;;
41556;SDS011;27720;51.992;5.890;2023-03-01T04:59:23;2.40;;;1.50;;
41556;SDS011;27720;51.992;5.890;2023-03-01T05:01:49;3.97;;;2.20;;
41556;SDS011;27720;51.992;5.890;2023-03-01T05:04:16;1.88;;;1.48;;
41556;SDS011;27720;51.992;5.890;2023-03-01T05:06:42;2.50;;;1.48;;
41556;SDS011;27720;51.992;5.890;2023-03-01T05:09:08;2.25;;;1.52;;
41556;SDS011;27720;51.992;5.890;2023-03-01T05:11:36;5.63;;;1.63;;
41556;SDS011;27720;51.992;5.890;2023-03-01T05:14:03;5.75;;;1.60;;
41556;SDS011;27720;51.992;5.890;2023-03-01T05:16:33;4.68;;;2.30;;
41556;SDS011;27720;51.992;5.890;2023-03-01T05:19:01;3.63;;;2.03;;
41556;SDS011;27720;51.992;5.890;2023-03-01T05:21:39;3.25;;;1.80;;
41556;SDS011;27720;51.992;5.890;2023-03-01T05:24:25;2.60;;;1.80;;
41556;SDS011;27720;51.992;5.890;2023-03-01T05:26:51;3.45;;;1.88;;
41556;SDS011;27720;51.992;5.890;2023-03-01T05:29:18;3.90;;;1.60;;
41556;SDS011;27720;51.992;5.890;2023-03-01T05:31:59;5.65;;;2.17;;
41556;SDS011;27720;51.992;5.890;2023-03-01T05:34:27;4.43;;;2.05;;
41556;SDS011;27720;51.992;5.890;2023-03-01T05:36:54;3.17;;;2.00;;
41556;SDS011;27720;51.992;5.890;2023-03-01T05:39:21;3.65;;;1.60;;
41556;SDS011;27720;51.992;5.890;2023-03-01T05:41:53;3.53;;;1.92;;
41556;SDS011;27720;51.992;5.890;2023-03-01T05:44:24;2.47;;;1.67;;
41556;SDS011;27720;51.992;5.890;2023-03-01T05:46:50;2.30;;;1.75;;
41556;SDS011;27720;51.992;5.890;2023-03-01T05:49:16;3.25;;;1.90;;
41556;SDS011;27720;51.992;5.890;2023-03-01T05:51:43;2.60;;;1.40;;
41556;SDS011;27720;51.992;5.890;2023-03-01T05:54:12;2.72;;;1.98;;
41556;SDS011;27720;51.992;5.890;2023-03-01T05:56:38;3.30;;;2.03;;
41556;SDS011;27720;51.992;5.890;2023-03-01T05:59:07;2.38;;;1.65;;
41556;SDS011;27720;51.992;5.890;2023-03-01T06:01:34;1.98;;;1.52;;
41556;SDS011;27720;51.992;5.890;2023-03-01T06:04:00;4.40;;;1.65;;
41556;SDS011;27720;51.992;5.890;2023-03-01T06:06:27;2.22;;;1.35;;
41556;SDS011;27720;51.992;5.890;2023-03-01T06:08:52;2.80;;;1.63;;
41556;SDS011;27720;51.992;5.890;2023-03-01T06:11:19;3.50;;;2.00;;
41556;SDS011;27720;51.992;5.890;2023-03-01T06:13:46;5.10;;;2.42;;
41556;SDS011;27720;51.992;5.890;2023-03-01T06:16:12;3.08;;;2.05;;
41556;SDS011;27720;51.992;5.890;2023-03-01T06:18:39;3.67;;;2.20;;
41556;SDS011;27720;51.992;5.890;2023-03-01T06:21:05;3.40;;;2.17;;
41556;SDS011;27720;51.992;5.890;2023-03-01T06:23:32;3.97;;;1.63;;
41556;SDS011;27720;51.992;5.890;2023-03-01T06:25:58;6.15;;;2.50;;
41556;SDS011;27720;51.992;5.890;2023-03-01T06:28:25;2.58;;;1.52;;
41556;SDS011;27720;51.992;5.890;2023-03-01T06:30:50;4.75;;;1.77;;
41556;SDS011;27720;51.992;5.890;2023-03-01T06:33:17;3.65;;;2.03;;
41556;SDS011;27720;51.992;5.890;2023-03-01T06:35:45;5.25;;;2.05;;
41556;SDS011;27720;51.992;5.890;2023-03-01T06:38:11;4.35;;;2.38;;
41556;SDS011;27720;51.992;5.890;2023-03-01T06:40:40;3.75;;;2.10;;
41556;SDS011;27720;51.992;5.890;2023-03-01T06:43:06;3.83;;;2.45;;
41556;SDS011;27720;51.992;5.890;2023-03-01T06:45:33;5.75;;;2.72;;
41556;SDS011;27720;51.992;5.890;2023-03-01T06:48:02;4.25;;;2.53;;
41556;SDS011;27720;51.992;5.890;2023-03-01T06:50:33;7.40;;;3.05;;
41556;SDS011;27720;51.992;5.890;2023-03-01T06:52:59;6.80;;;3.90;;
41556;SDS011;27720;51.992;5.890;2023-03-01T06:55:31;6.03;;;4.15;;
41556;SDS011;27720;51.992;5.890;2023-03-01T06:58:00;5.97;;;4.28;;
41556;SDS011;27720;51.992;5.890;2023-03-01T07:00:29;5.45;;;3.65;;
41556;SDS011;27720;51.992;5.890;2023-03-01T07:02:57;7.10;;;4.32;;
41556;SDS011;27720;51.992;5.890;2023-03-01T07:05:24;6.90;;;4.25;;
41556;SDS011;27720;51.992;5.890;2023-03-01T07:07:50;6.40;;;3.50;;
41556;SDS011;27720;51.992;5.890;2023-03-01T07:10:16;5.18;;;3.10;;
41556;SDS011;27720;51.992;5.890;2023-03-01T07:12:41;15.52;;;4.68;;
41556;SDS011;27720;51.992;5.890;2023-03-01T07:15:07;10.13;;;5.25;;
41556;SDS011;27720;51.992;5.890;2023-03-01T07:17:34;12.82;;;6.05;;
41556;SDS011;27720;51.992;5.890;2023-03-01T07:20:00;9.30;;;4.82;;
41556;SDS011;27720;51.992;5.890;2023-03-01T07:22:26;9.13;;;4.45;;
41556;SDS011;27720;51.992;5.890;2023-03-01T07:24:51;12.20;;;5.03;;
41556;SDS011;27720;51.992;5.890;2023-03-01T07:27:17;8.57;;;4.40;;
41556;SDS011;27720;51.992;5.890;2023-03-01T07:29:43;7.82;;;4.07;;
41556;SDS011;27720;51.992;5.890;2023-03-01T07:32:09;7.90;;;3.70;;
41556;SDS011;27720;51.992;5.890;2023-03-01T07:34:35;7.30;;;3.58;;
41556;SDS011;27720;51.992;5.890;2023-03-01T07:37:01;5.93;;;3.35;;
41556;SDS011;27720;51.992;5.890;2023-03-01T07:39:30;5.40;;;3.30;;
41556;SDS011;27720;51.992;5.890;2023-03-01T07:41:56;5.97;;;2.97;;
41556;SDS011;27720;51.992;5.890;2023-03-01T07:44:21;4.80;;;2.28;;
41556;SDS011;27720;51.992;5.890;2023-03-01T07:46:47;4.18;;;2.63;;
41556;SDS011;27720;51.992;5.890;2023-03-01T07:49:13;4.32;;;2.50;;
41556;SDS011;27720;51.992;5.890;2023-03-01T07:51:39;3.15;;;1.98;;
41556;SDS011;27720;51.992;5.890;2023-03-01T07:54:05;4.95;;;2.47;;
41556;SDS011;27720;51.992;5.890;2023-03-01T07:56:30;4.53;;;2.58;;
41556;SDS011;27720;51.992;5.890;2023-03-01T07:58:56;4.97;;;3.30;;
41556;SDS011;27720;51.992;5.890;2023-03-01T08:01:24;5.82;;;3.20;;
41556;SDS011;27720;51.992;5.890;2023-03-01T08:03:50;4.47;;;2.70;;
41556;SDS011;27720;51.992;5.890;2023-03-01T08:06:16;5.13;;;2.72;;
41556;SDS011;27720;51.992;5.890;2023-03-01T08:08:45;5.22;;;2.90;;
41556;SDS011;27720;51.992;5.890;2023-03-01T08:11:11;5.70;;;3.25;;
41556;SDS011;27720;51.992;5.890;2023-03-01T08:13:38;5.68;;;2.83;;
41556;SDS011;27720;51.992;5.890;2023-03-01T08:16:10;4.70;;;2.10;;
41556;SDS011;27720;51.992;5.890;2023-03-01T08:18:38;4.57;;;2.38;;
41556;SDS011;27720;51.992;5.890;2023-03-01T08:21:04;5.07;;;1.60;;
41556;SDS011;27720;51.992;5.890;2023-03-01T08:23:35;6.75;;;2.70;;
41556;SDS011;27720;51.992;5.890;2023-03-01T08:26:09;4.30;;;1.92;;
41556;SDS011;27720;51.992;5.890;2023-03-01T08:28:45;3.80;;;2.00;;
41556;SDS011;27720;51.992;5.890;2023-03-01T08:31:34;5.55;;;2.45;;
41556;SDS011;27720;51.992;5.890;2023-03-01T08:34:05;6.22;;;2.10;;
41556;SDS011;27720;51.992;5.890;2023-03-01T08:36:35;6.05;;;2.50;;
41556;SDS011;27720;51.992;5.890;2023-03-01T08:39:02;3.58;;;1.83;;
41556;SDS011;27720;51.992;5.890;2023-03-01T08:41:29;3.53;;;1.67;;
41556;SDS011;27720;51.992;5.890;2023-03-01T08:43:55;5.07;;;2.03;;
41556;SDS011;27720;51.992;5.890;2023-03-01T08:48:55;7.38;;;2.30;;
41556;SDS011;27720;51.992;5.890;2023-03-01T08:51:21;6.07;;;2.50;;
41556;SDS011;27720;51.992;5.890;2023-03-01T08:53:48;7.68;;;2.88;;
41556;SDS011;27720;51.992;5.890;2023-03-01T08:56:14;5.30;;;2.58;;
41556;SDS011;27720;51.992;5.890;2023-03-01T08:58:50;4.18;;;2.15;;
41556;SDS011;27720;51.992;5.890;2023-03-01T09:01:16;4.63;;;2.28;;
41556;SDS011;27720;51.992;5.890;2023-03-01T09:03:46;5.53;;;1.77;;
41556;SDS011;27720;51.992;5.890;2023-03-01T09:06:12;4.03;;;2.15;;
41556;SDS011;27720;51.992;5.890;2023-03-01T09:08:41;5.15;;;2.38;;
41556;SDS011;27720;51.992;5.890;2023-03-01T09:11:10;6.13;;;1.88;;
41556;SDS011;27720;51.992;5.890;2023-03-01T09:13:38;6.45;;;2.15;;
41556;SDS011;27720;51.992;5.890;2023-03-01T09:16:04;2.92;;;1.63;;
41556;SDS011;27720;51.992;5.890;2023-03-01T09:18:31;4.30;;;2.00;;
41556;SDS011;27720;51.992;5.890;2023-03-01T09:21:05;5.00;;;2.33;;
41556;SDS011;27720;51.992;5.890;2023-03-01T09:23:34;4.05;;;2.00;;
41556;SDS011;27720;51.992;5.890;2023-03-01T09:26:04;4.32;;;1.63;;
41556;SDS011;27720;51.992;5.890;2023-03-01T09:28:30;4.93;;;1.80;;
41556;SDS011;27720;51.992;5.890;2023-03-01T09:31:00;3.17;;;1.50;;
41556;SDS011;27720;51.992;5.890;2023-03-01T09:33:27;3.63;;;1.70;;
41556;SDS011;27720;51.992;5.890;2023-03-01T09:36:02;3.00;;;1.80;;
41556;SDS011;27720;51.992;5.890;2023-03-01T09:38:32;3.53;;;1.80;;
41556;SDS011;27720;51.992;5.890;2023-03-01T09:40:59;3.28;;;1.55;;
41556;SDS011;27720;51.992;5.890;2023-03-01T09:45:58;4.25;;;2.13;;
41556;SDS011;27720;51.992;5.890;2023-03-01T09:48:28;9.57;;;3.50;;
41556;SDS011;27720;51.992;5.890;2023-03-01T09:51:05;7.32;;;3.45;;
41556;SDS011;27720;51.992;5.890;2023-03-01T09:53:37;6.47;;;3.30;;
41556;SDS011;27720;51.992;5.890;2023-03-01T09:56:24;8.15;;;3.45;;
41556;SDS011;27720;51.992;5.890;2023-03-01T10:02:39;5.88;;;2.92;;
41556;SDS011;27720;51.992;5.890;2023-03-01T10:05:14;7.53;;;3.13;;
41556;SDS011;27720;51.992;5.890;2023-03-01T10:08:06;6.03;;;3.35;;
41556;SDS011;27720;51.992;5.890;2023-03-01T10:10:49;7.83;;;3.10;;
41556;SDS011;27720;51.992;5.890;2023-03-01T10:13:21;4.45;;;2.85;;
41556;SDS011;27720;51.992;5.890;2023-03-01T10:16:05;5.57;;;2.97;;
41556;SDS011;27720;51.992;5.890;2023-03-01T10:18:40;6.55;;;3.50;;
41556;SDS011;27720;51.992;5.890;2023-03-01T10:21:14;4.97;;;2.63;;
41556;SDS011;27720;51.992;5.890;2023-03-01T10:23:41;6.47;;;3.20;;
41556;SDS011;27720;51.992;5.890;2023-03-01T10:31:24;5.65;;;2.45;;
41556;SDS011;27720;51.992;5.890;2023-03-01T10:33:54;4.43;;;2.28;;
41556;SDS011;27720;51.992;5.890;2023-03-01T10:36:22;7.95;;;2.47;;
41556;SDS011;27720;51.992;5.890;2023-03-01T10:38:56;6.57;;;2.28;;
41556;SDS011;27720;51.992;5.890;2023-03-01T10:41:23;4.35;;;2.22;;
41556;SDS011;27720;51.992;5.890;2023-03-01T10:43:58;3.50;;;2.00;;
41556;SDS011;27720;51.992;5.890;2023-03-01T10:51:50;3.17;;;1.73;;
41556;SDS011;27720;51.992;5.890;2023-03-01T10:54:21;5.43;;;2.20;;
41556;SDS011;27720;51.992;5.890;2023-03-01T10:56:51;4.85;;;2.13;;
41556;SDS011;27720;51.992;5.890;2023-03-01T10:59:31;3.63;;;1.70;;
41556;SDS011;27720;51.992;5.890;2023-03-01T11:04:35;3.65;;;1.80;;
41556;SDS011;27720;51.992;5.890;2023-03-01T11:07:01;2.13;;;1.40;;
41556;SDS011;27720;51.992;5.890;2023-03-01T11:09:31;3.88;;;1.80;;
41556;SDS011;27720;51.992;5.890;2023-03-01T11:12:03;4.93;;;1.88;;
41556;SDS011;27720;51.992;5.890;2023-03-01T11:14:37;2.47;;;1.65;;
41556;SDS011;27720;51.992;5.890;2023-03-01T11:20:10;3.35;;;1.48;;
41556;SDS011;27720;51.992;5.890;2023-03-01T11:22:39;2.88;;;1.45;;
41556;SDS011;27720;51.992;5.890;2023-03-01T11:25:14;4.53;;;1.88;;
41556;SDS011;27720;51.992;5.890;2023-03-01T11:27:43;3.35;;;1.90;;
41556;SDS011;27720;51.992;5.890;2023-03-01T11:30:21;2.75;;;1.83;;
41556;SDS011;27720;51.992;5.890;2023-03-01T11:33:04;2.95;;;1.42;;
41556;SDS011;27720;51.992;5.890;2023-03-01T11:35:46;2.35;;;1.30;;
41556;SDS011;27720;51.992;5.890;2023-03-01T11:38:23;4.00;;;2.00;;
41556;SDS011;27720;51.992;5.890;2023-03-01T11:43:37;2.90;;;1.63;;
41556;SDS011;27720;51.992;5.890;2023-03-01T11:52:29;3.33;;;1.52;;
41556;SDS011;27720;51.992;5.890;2023-03-01T11:58:05;5.30;;;2.22;;
41556;SDS011;27720;51.992;5.890;2023-03-01T12:11:39;3.88;;;1.67;;
41556;SDS011;27720;51.992;5.890;2023-03-01T12:22:46;3.05;;;1.52;;
41556;SDS011;27720;51.992;5.890;2023-03-01T12:25:16;2.97;;;1.77;;
41556;SDS011;27720;51.992;5.890;2023-03-01T12:28:01;5.78;;;2.67;;
41556;SDS011;27720;51.992;5.890;2023-03-01T12:49:41;3.10;;;1.65;;
41556;SDS011;27720;51.992;5.890;2023-03-01T12:54:53;3.47;;;1.77;;
41556;SDS011;27720;51.992;5.890;2023-03-01T12:57:24;4.88;;;1.67;;
41556;SDS011;27720;51.992;5.890;2023-03-01T13:09:02;5.13;;;2.42;;
41556;SDS011;27720;51.992;5.890;2023-03-01T13:11:36;4.13;;;1.83;;
